LFPOLSZB

Guest
Details From LFPO - Paris Orly
To LSZB - Bern-Belp
Flight Number -
Tags decoded
Created
Modified
Stats Distance 234 nm / 433 km
Max Altitude 0 ft / 0 m
Waypoints 2
Social Downloads 1
Likes 0
Share VATSIM

Download

Looking for another format? Having issues loading an existing format? Contact us
Advertisement - Login to hide

Notes

Requested: LFPO LSZB

Route

LFPO LSZB

ID Type Via Altitude Latitude Longitude Leg Dist Tot Dist Heading (true) Name
O LFPO APT - 0 ft / 0 m 48.72636˚ 2.36703˚ - 0 nm - Paris Orly
O LSZB APT - 0 ft / 0 m 46.91255˚ 7.49767˚ 233 nm 233 nm 116° / 120° Bern-Belp

Altitude Profile

Advertisement - Login to hide

Weather


0- 5 10 15 20 25 30 35+ Temperature / ° C

Clouds and Precipitation
Forecast for 2017-12-12 06:00 UTC. Updated 2 hours ago

Ground ~20,000 ft ~40,000 ft Winds

LFPO

Details ICAO LFPO (ORY)
Name Paris Orly
Region France
Timezone Europe/Paris (UTC+1.0)
Stats Elevation 291 ft / 89 m (AMSL)
Location 48.726360° 2.367029°
Runways 3
Magnetic Variation 0.599° E

METAR

LFPO 120500Z AUTO 26007KT CAVOK M00/M01 Q1006

Decode

TAF

TAF LFPO 111800Z 1118/1224 CNL

Decode

Departure Runways

ID Width Length Bearing (true) Bearing (mag) Surface Threshold Offset Overrun Length
02 197 ft / 60 m 7,873 ft / 2,400 m 18.29° 17.69° Concrete 0 ft / 0 m 0 ft / 0 m
06 148 ft / 45 m 11,952 ft / 3,643 m 61.78° 61.18° Asphalt 984 ft / 300 m 197 ft / 60 m
08 148 ft / 45 m 10,868 ft / 3,313 m 74.36° 73.76° Concrete 0 ft / 0 m 1,050 ft / 320 m
20 197 ft / 60 m 7,873 ft / 2,400 m 198.30° 197.70° Concrete 0 ft / 0 m 0 ft / 0 m
24 148 ft / 45 m 11,952 ft / 3,643 m 241.81° 241.21° Asphalt 0 ft / 0 m 197 ft / 60 m
26 148 ft / 45 m 10,868 ft / 3,313 m 254.39° 253.79° Concrete 1,427 ft / 435 m 0 ft / 0 m

LSZB

Details ICAO LSZB (BRN)
Name Bern-Belp
Region Switzerland
Timezone Europe/Zurich (UTC+1.0)
Stats Elevation 1,672 ft / 510 m (AMSL)
Location 46.912547° 7.497672°
Runways 3
Magnetic Variation 2.081° E

METAR

LSZB 120450Z 28010KT 9999 -SN SCT010 OVC025 02/M00 Q1004 NOSIG

Decode

TAF

Not found

Destination Runways

ID Width Length Bearing (true) Bearing (mag) Surface Threshold Offset Overrun Length
14 98 ft / 30 m 5,677 ft / 1,730 m 140.23° 138.15° Asphalt 656 ft / 200 m 0 ft / 0 m
14L 98 ft / 30 m 2,125 ft / 648 m 140.01° 137.93° Grass 0 ft / 0 m 0 ft / 0 m
14R 98 ft / 30 m 2,123 ft / 647 m 140.14° 138.06° Grass 0 ft / 0 m 0 ft / 0 m
32 98 ft / 30 m 5,677 ft / 1,730 m 320.24° 318.16° Asphalt 0 ft / 0 m 0 ft / 0 m
32L 98 ft / 30 m 2,123 ft / 647 m 320.14° 318.06° Grass 0 ft / 0 m 0 ft / 0 m
32R 98 ft / 30 m 2,125 ft / 648 m 320.01° 317.93° Grass 0 ft / 0 m 0 ft / 0 m

Approach Navaids

Runway Type Ident Frequency Range Bearing (true) Bearing (mag) Slope Elevation
14 Localiser IBE 110.10 MHz 18 nm / 33 km 140.24° 138.16° - 1,702 ft / 519 m (AMSL)
14 Glidescope IBE 110.10 MHz 10 nm / 19 km 140.24° 138.16° 4.00° 1,664 ft / 507 m (AMSL)
14 DME IBE 110.10 MHz 18 nm / 33 km - - - 1,684 ft / 513 m (AMSL)

Popular Alternatives